createdAt,value
2019-05-22T00:01:29.105Z,96714.52
2019-05-22T00:04:15.526Z,96715.62
2019-05-22T00:06:50.180Z,96716.77
2019-05-22T00:09:24.812Z,96717.89
2019-05-22T00:11:56.784Z,96720.62
2019-05-22T00:14:28.714Z,96736.95
2019-05-22T00:17:02.919Z,96730.41
2019-05-22T00:19:35.019Z,96732.84
2019-05-22T00:22:13.827Z,96713.77
2019-05-22T00:24:47.025Z,96722.97
2019-05-22T00:27:20.664Z,96726.55
2019-05-22T00:29:56.034Z,96708.97
2019-05-22T00:32:29.264Z,96727.86
2019-05-22T00:35:01.380Z,96720.20
2019-05-22T00:37:37.166Z,96721.01
2019-05-22T00:40:09.937Z,96733.56
2019-05-22T00:42:45.378Z,96730.20
2019-05-22T00:45:20.069Z,96730.20
2019-05-22T00:47:52.288Z,96726.66
2019-05-22T00:50:29.899Z,96733.46
2019-05-22T00:53:23.455Z,96736.67
2019-05-22T00:56:02.092Z,96742.37
2019-05-22T00:58:36.039Z,96732.59
2019-05-22T01:01:45.294Z,96734.72
2019-05-22T01:04:20.446Z,96724.39
2019-05-22T01:06:54.997Z,96727.03
2019-05-22T01:09:32.912Z,96741.22
2019-05-22T01:12:07.078Z,96724.30
2019-05-22T01:14:42.985Z,96726.16
2019-05-22T01:17:14.965Z,96736.48
2019-05-22T01:19:49.041Z,96729.31
2019-05-22T01:22:23.314Z,96742.64
2019-05-22T01:24:56.934Z,96741.17
2019-05-22T01:27:30.135Z,96739.47
2019-05-22T01:30:03.814Z,96757.11
2019-05-22T01:32:45.501Z,96755.70
2019-05-22T01:35:19.801Z,96756.32
2019-05-22T01:37:52.746Z,96750.88
2019-05-22T01:40:41.571Z,96747.94
2019-05-22T01:43:17.578Z,96762.13
2019-05-22T01:45:55.380Z,96749.59
2019-05-22T01:48:33.412Z,96757.22
2019-05-22T01:51:07.258Z,96770.73
2019-05-22T01:53:42.233Z,96763.36
2019-05-22T01:56:16.220Z,96748.73
2019-05-22T01:58:50.022Z,96754.84
2019-05-22T02:01:24.235Z,96752.67
2019-05-22T02:04:00.025Z,96755.89
2019-05-22T02:06:34.363Z,96751.81
2019-05-22T02:09:24.569Z,96753.48
2019-05-22T02:12:02.708Z,96746.69
2019-05-22T02:14:35.547Z,96751.86
2019-05-22T02:17:09.739Z,96751.63
2019-05-22T02:19:42.064Z,96744.61
2019-05-22T02:22:15.231Z,96752.54
2019-05-22T02:24:51.909Z,96757.97
2019-05-22T02:27:26.384Z,96752.58
2019-05-22T02:29:59.060Z,96756.92
2019-05-22T02:32:34.234Z,96754.80
2019-05-22T02:35:08.518Z,96744.73
2019-05-22T02:37:42.262Z,96758.52
2019-05-22T02:40:25.949Z,96754.40
2019-05-22T02:42:59.145Z,96753.27
2019-05-22T02:45:32.293Z,96754.08
2019-05-22T02:48:05.977Z,96758.42
2019-05-22T02:50:39.373Z,96762.27
2019-05-22T02:53:13.871Z,96760.41
2019-05-22T02:55:47.627Z,96763.91
2019-05-22T02:58:20.250Z,96763.91
2019-05-22T03:01:01.539Z,96771.28
2019-05-22T03:03:34.840Z,96772.05
2019-05-22T03:06:12.333Z,96767.44
2019-05-22T03:09:24.645Z,96771.56
2019-05-22T03:12:01.451Z,96768.80
2019-05-22T03:14:35.094Z,96769.34
2019-05-22T03:17:13.096Z,96770.74
2019-05-22T03:19:46.021Z,96771.20
2019-05-22T03:22:31.498Z,96779.39
2019-05-22T03:25:09.216Z,96785.06
2019-05-22T03:27:44.132Z,96787.45
2019-05-22T03:30:31.349Z,96791.58
2019-05-22T03:33:04.245Z,96798.45
2019-05-22T03:35:46.230Z,96803.89
2019-05-22T03:38:20.240Z,96795.70
2019-05-22T03:40:53.436Z,96804.09
2019-05-22T03:43:28.381Z,96799.42
2019-05-22T03:46:02.925Z,96800.23
2019-05-22T03:48:37.881Z,96801.27
2019-05-22T03:51:13.444Z,96794.44
2019-05-22T03:53:48.634Z,96799.60
2019-05-22T03:56:22.778Z,96803.68
2019-05-22T03:58:55.369Z,96805.85
2019-05-22T04:01:26.882Z,96805.03
2019-05-22T04:03:59.586Z,96806.66
2019-05-22T04:06:33.544Z,96810.20
2019-05-22T04:09:19.386Z,96809.38
2019-05-22T04:11:52.692Z,96816.98
2019-05-22T04:14:34.920Z,96814.01
2019-05-22T04:17:10.283Z,96826.78
2019-05-22T04:19:49.926Z,96826.78
2019-05-22T04:22:19.176Z,96822.94
2019-05-22T04:24:51.087Z,96820.25
2019-05-22T04:27:23.195Z,96820.25
2019-05-22T04:29:57.055Z,96835.75
2019-05-22T04:32:37.467Z,96826.86
2019-05-22T04:35:13.184Z,96832.77
2019-05-22T04:37:46.989Z,96825.77
2019-05-22T04:40:58.165Z,96835.10
2019-05-22T04:43:34.122Z,96835.64
2019-05-22T04:46:08.342Z,96836.11
2019-05-22T04:48:40.069Z,96836.92
2019-05-22T04:51:32.059Z,96833.39
2019-05-22T04:54:03.701Z,96839.56
2019-05-22T04:56:36.923Z,96845.27
2019-05-22T04:59:09.236Z,96841.89
2019-05-22T05:01:41.323Z,96851.02
2019-05-22T05:04:14.134Z,96849.07
2019-05-22T05:06:46.786Z,96851.24
2019-05-22T05:09:18.996Z,96847.17
2019-05-22T05:11:51.359Z,96850.92
2019-05-22T05:14:23.117Z,96861.98
2019-05-22T05:16:55.041Z,96868.47
2019-05-22T05:19:26.951Z,96868.47
2019-05-22T05:21:58.690Z,96861.67
2019-05-22T05:24:30.713Z,96866.53
2019-05-22T05:27:03.155Z,96869.80
2019-05-22T05:29:35.393Z,96879.27
2019-05-22T05:32:08.568Z,96867.95
2019-05-22T05:34:49.306Z,96876.59
2019-05-22T05:37:24.220Z,96882.53
2019-05-22T05:40:42.291Z,96885.12
2019-05-22T05:43:17.232Z,96882.81
2019-05-22T05:45:50.555Z,96879.31
2019-05-22T05:48:26.001Z,96878.81
2019-05-22T05:51:40.441Z,96878.77
2019-05-22T05:54:18.391Z,96884.66
2019-05-22T05:56:52.953Z,96884.51
2019-05-22T05:59:27.760Z,96878.98
2019-05-22T06:02:00.151Z,96879.74
2019-05-22T06:04:37.872Z,96878.77
2019-05-22T06:07:34.920Z,96882.11
2019-05-22T06:10:44.923Z,96882.88
2019-05-22T06:13:17.563Z,96882.06
2019-05-22T06:16:46.267Z,96879.34
2019-05-22T06:19:19.789Z,96882.33
2019-05-22T06:21:52.658Z,96891.64
2019-05-22T06:24:28.140Z,96898.78
2019-05-22T06:27:09.065Z,96913.16
2019-05-22T06:29:59.392Z,96912.45
2019-05-22T06:33:07.938Z,96910.05
2019-05-22T06:35:40.701Z,96911.41
2019-05-22T06:38:24.337Z,96915.09
2019-05-22T06:40:56.599Z,96910.91
2019-05-22T06:44:43.416Z,96912.60
2019-05-22T06:47:22.054Z,96920.39
2019-05-22T06:49:57.290Z,96919.47
2019-05-22T06:52:29.094Z,96919.47
2019-05-22T06:55:00.932Z,96917.80
2019-05-22T06:57:33.527Z,96917.08
2019-05-22T07:00:25.162Z,96930.23
2019-05-22T07:02:56.806Z,96920.66
2019-05-22T07:05:30.023Z,96929.06
2019-05-22T07:08:03.512Z,96927.92
2019-05-22T07:10:36.414Z,96934.31
2019-05-22T07:13:10.549Z,96935.24
2019-05-22T07:15:46.166Z,96942.97
2019-05-22T07:18:22.737Z,96936.98
2019-05-22T07:20:57.012Z,96942.22
2019-05-22T07:23:32.060Z,96937.22
2019-05-22T07:26:06.212Z,96933.55
2019-05-22T07:28:38.972Z,96936.37
2019-05-22T07:31:11.671Z,96935.72
2019-05-22T07:33:43.721Z,96947.22
2019-05-22T07:36:17.921Z,96949.48
2019-05-22T07:38:49.573Z,96955.45
2019-05-22T07:41:22.049Z,96950.34
2019-05-22T07:43:54.311Z,96955.34
2019-05-22T07:46:30.839Z,96950.05
2019-05-22T07:49:01.618Z,96951.55
2019-05-22T07:51:48.468Z,96954.48
2019-05-22T07:54:08.208Z,96962.05
2019-05-22T07:56:40.463Z,96965.75
2019-05-22T07:59:12.467Z,96955.74
2019-05-22T08:01:44.609Z,96962.92
2019-05-22T08:04:19.238Z,96973.28
2019-05-22T08:06:51.125Z,96973.33
2019-05-22T08:09:24.717Z,96971.60
2019-05-22T08:11:58.419Z,96975.53
2019-05-22T08:14:32.611Z,96981.09
2019-05-22T08:17:06.161Z,96977.77
2019-05-22T08:19:38.168Z,96974.92
2019-05-22T08:22:10.525Z,96980.75
2019-05-22T08:24:43.286Z,96980.65
2019-05-22T08:27:16.706Z,96995.17
2019-05-22T08:29:48.927Z,96984.47
2019-05-22T08:32:23.176Z,96994.43
2019-05-22T08:34:55.543Z,96993.55
2019-05-22T08:37:31.463Z,96991.70
2019-05-22T08:40:04.625Z,97000.76
2019-05-22T08:42:37.923Z,97004.31
2019-05-22T08:45:10.522Z,97006.30
2019-05-22T08:47:42.688Z,97005.72
2019-05-22T08:50:16.738Z,97008.61
2019-05-22T08:52:50.083Z,97010.89
2019-05-22T08:55:22.901Z,97007.73
2019-05-22T08:57:54.837Z,97011.75
2019-05-22T09:00:28.856Z,97020.10
2019-05-22T09:03:02.019Z,97014.55
2019-05-22T09:05:34.361Z,97018.75
2019-05-22T09:08:06.336Z,97018.56
2019-05-22T09:10:38.153Z,97024.09
2019-05-22T09:13:10.107Z,97021.47
2019-05-22T09:15:43.421Z,97028.28
2019-05-22T09:18:15.893Z,97029.30
2019-05-22T09:20:49.813Z,97028.94
2019-05-22T09:23:22.530Z,97028.66
2019-05-22T09:25:55.249Z,97035.54
2019-05-22T09:28:27.250Z,97035.80
2019-05-22T09:30:59.746Z,97039.30
2019-05-22T09:33:32.429Z,97050.89
2019-05-22T09:36:04.764Z,97050.39
2019-05-22T09:38:36.963Z,97055.03
2019-05-22T09:41:09.095Z,97064.20
2019-05-22T09:43:41.834Z,97058.47
2019-05-22T09:46:13.862Z,97061.59
2019-05-22T09:48:46.187Z,97059.85
2019-05-22T09:51:18.473Z,97063.39
2019-05-22T09:53:53.993Z,97066.92
2019-05-22T09:56:26.273Z,97076.19
2019-05-22T09:58:58.066Z,97072.00
2019-05-22T10:01:30.018Z,97070.45
2019-05-22T10:04:02.710Z,97077.81
2019-05-22T10:06:34.704Z,97082.56
2019-05-22T10:09:09.009Z,97091.41
2019-05-22T10:11:41.125Z,97091.53
2019-05-22T10:14:13.263Z,97088.30
2019-05-22T10:16:46.355Z,97100.58
2019-05-22T10:19:18.008Z,97097.19
2019-05-22T10:21:50.991Z,97092.56
2019-05-22T10:24:23.137Z,97087.48
2019-05-22T10:26:55.681Z,97093.20
2019-05-22T10:29:31.530Z,97088.36
2019-05-22T10:32:01.240Z,97096.66
2019-05-22T10:34:33.810Z,97093.16
2019-05-22T10:37:08.805Z,97100.19
2019-05-22T10:39:41.605Z,97097.17
2019-05-22T10:42:14.081Z,97104.63
2019-05-22T10:44:46.181Z,97116.45
2019-05-22T10:47:19.185Z,97118.75
2019-05-22T10:49:51.795Z,97120.77
2019-05-22T10:52:24.126Z,97123.69
2019-05-22T10:54:56.202Z,97129.21
2019-05-22T10:57:29.003Z,97130.28
2019-05-22T11:00:01.193Z,97134.69
2019-05-22T11:02:33.528Z,97130.14
2019-05-22T11:05:10.001Z,97134.52
2019-05-22T11:07:43.640Z,97137.88
2019-05-22T11:10:17.069Z,97131.22
2019-05-22T11:12:48.826Z,97142.24
2019-05-22T11:15:21.996Z,97128.06
2019-05-22T11:17:54.482Z,97129.33
2019-05-22T11:20:26.477Z,97128.02
2019-05-22T11:22:59.874Z,97136.63
2019-05-22T11:25:32.401Z,97125.06
2019-05-22T11:28:04.354Z,97122.63
2019-05-22T11:30:36.776Z,97134.72
2019-05-22T11:33:09.387Z,97132.14
2019-05-22T11:35:41.807Z,97128.33
2019-05-22T11:38:14.421Z,97120.44
2019-05-22T11:40:47.076Z,97122.39
2019-05-22T11:43:19.223Z,97130.61
2019-05-22T11:45:51.515Z,97123.34
2019-05-22T11:48:23.930Z,97128.59
2019-05-22T11:51:00.900Z,97134.40
2019-05-22T11:53:31.182Z,97146.35
2019-05-22T11:56:03.643Z,97150.83
2019-05-22T11:58:36.631Z,97140.42
2019-05-22T12:01:08.736Z,97135.95
2019-05-22T12:03:42.594Z,97137.28
2019-05-22T12:06:16.636Z,97140.58
2019-05-22T12:08:50.267Z,97143.63
2019-05-22T12:11:22.751Z,97133.95
2019-05-22T12:13:55.497Z,97152.73
2019-05-22T12:16:28.671Z,97145.38
2019-05-22T12:19:00.944Z,97141.55
2019-05-22T12:21:32.696Z,97150.83
2019-05-22T12:24:04.620Z,97142.30
2019-05-22T12:26:37.462Z,97159.18
2019-05-22T12:29:09.211Z,97155.33
2019-05-22T12:31:41.321Z,97153.13
2019-05-22T12:34:13.204Z,97147.55
2019-05-22T12:36:45.298Z,97152.05
2019-05-22T12:39:18.270Z,97155.28
2019-05-22T12:41:50.781Z,97155.86
2019-05-22T12:44:22.899Z,97157.89
2019-05-22T12:46:54.908Z,97154.19
2019-05-22T12:49:29.107Z,97167.00
2019-05-22T12:52:01.946Z,97165.64
2019-05-22T12:54:45.762Z,97164.27
2019-05-22T12:57:07.079Z,97173.69
2019-05-22T12:59:39.081Z,97172.22
2019-05-22T13:02:11.176Z,97170.81
2019-05-22T13:04:43.656Z,97168.68
2019-05-22T13:07:16.534Z,97165.41
2019-05-22T13:09:48.323Z,97163.65
2019-05-22T13:12:20.303Z,97164.59
2019-05-22T13:15:08.275Z,97167.27
2019-05-22T13:17:28.583Z,97158.10
2019-05-22T13:20:03.137Z,97160.33
2019-05-22T13:22:38.102Z,97169.05
2019-05-22T13:25:12.322Z,97169.98
2019-05-22T13:27:45.098Z,97176.30
2019-05-22T13:30:19.824Z,97175.44
2019-05-22T13:32:52.922Z,97181.34
2019-05-22T13:35:25.609Z,97175.48
2019-05-22T13:37:58.054Z,97173.62
2019-05-22T13:40:30.358Z,97176.25
2019-05-22T13:43:04.358Z,97179.87
2019-05-22T13:45:36.744Z,97178.12
2019-05-22T13:48:09.329Z,97176.27
2019-05-22T13:50:41.706Z,97181.19
2019-05-22T13:53:15.938Z,97184.05
2019-05-22T13:55:48.481Z,97180.36
2019-05-22T13:58:21.746Z,97183.45
2019-05-22T14:00:53.914Z,97180.80
2019-05-22T14:03:26.552Z,97178.17
2019-05-22T14:05:58.962Z,97180.18
2019-05-22T14:08:30.777Z,97182.64
2019-05-22T14:11:03.054Z,97184.38
2019-05-22T14:13:35.693Z,97181.42
2019-05-22T14:16:07.873Z,97190.48
2019-05-22T14:18:39.664Z,97186.66
2019-05-22T14:21:11.653Z,97184.83
2019-05-22T14:23:43.897Z,97188.34
2019-05-22T14:26:16.572Z,97189.97
2019-05-22T14:28:49.964Z,97194.43
2019-05-22T14:31:22.407Z,97195.78
2019-05-22T14:33:54.716Z,97195.42
2019-05-22T14:36:27.495Z,97189.52
2019-05-22T14:38:59.458Z,97189.78
2019-05-22T14:41:31.617Z,97194.81
2019-05-22T14:44:03.854Z,97194.84
2019-05-22T14:46:35.577Z,97193.11
2019-05-22T14:49:07.441Z,97190.02
2019-05-22T14:51:40.761Z,97197.79
2019-05-22T14:54:12.728Z,97186.20
2019-05-22T14:56:46.316Z,97195.23
2019-05-22T14:59:19.888Z,97192.42
2019-05-22T15:01:52.204Z,97183.70
2019-05-22T15:04:25.520Z,97186.47
2019-05-22T15:06:57.647Z,97191.56
2019-05-22T15:09:30.141Z,97190.20
2019-05-22T15:12:02.999Z,97182.75
2019-05-22T15:14:34.751Z,97186.80
2019-05-22T15:17:07.033Z,97183.48
2019-05-22T15:19:38.836Z,97187.75
2019-05-22T15:22:10.951Z,97180.11
2019-05-22T15:24:42.960Z,97173.95
2019-05-22T15:27:16.618Z,97176.74
2019-05-22T15:29:48.578Z,97174.98
2019-05-22T15:32:20.845Z,97174.06
2019-05-22T15:34:52.890Z,97185.47
2019-05-22T15:37:27.157Z,97183.42
2019-05-22T15:39:59.651Z,97176.80
2019-05-22T15:42:38.443Z,97184.02
2019-05-22T15:45:14.539Z,97184.56
2019-05-22T15:47:55.356Z,97181.62
2019-05-22T15:50:26.669Z,97186.56
2019-05-22T15:53:01.492Z,97184.08
2019-05-22T15:55:35.456Z,97192.89
2019-05-22T15:58:08.356Z,97193.66
2019-05-22T16:00:42.941Z,97193.47
2019-05-22T16:03:16.866Z,97200.88
2019-05-22T16:05:49.257Z,97203.00
2019-05-22T16:08:20.962Z,97197.33
2019-05-22T16:10:53.025Z,97199.52
2019-05-22T16:13:27.037Z,97198.77
2019-05-22T16:15:59.861Z,97200.33
2019-05-22T16:18:34.791Z,97203.45
2019-05-22T16:21:10.328Z,97198.59
2019-05-22T16:23:43.187Z,97195.51
2019-05-22T16:26:16.503Z,97197.50
2019-05-22T16:28:50.240Z,97209.53
2019-05-22T16:31:22.430Z,97211.67
2019-05-22T16:33:54.406Z,97213.61
2019-05-22T16:36:27.063Z,97214.34
2019-05-22T16:39:00.692Z,97213.81
2019-05-22T16:41:36.672Z,97226.03
2019-05-22T16:44:09.535Z,97229.61
2019-05-22T16:46:42.926Z,97221.16
2019-05-22T16:49:15.112Z,97216.80
2019-05-22T16:51:51.073Z,97220.62
2019-05-22T16:54:23.914Z,97233.38
2019-05-22T16:56:56.326Z,97223.61
2019-05-22T16:59:30.544Z,97226.92
2019-05-22T17:02:03.099Z,97221.98
2019-05-22T17:04:34.866Z,97222.33
2019-05-22T17:07:08.442Z,97237.47
2019-05-22T17:09:43.271Z,97228.55
2019-05-22T17:12:17.004Z,97235.41
2019-05-22T17:14:51.334Z,97231.02
2019-05-22T17:17:23.386Z,97234.91
2019-05-22T17:19:55.274Z,97225.09
2019-05-22T17:22:28.458Z,97228.91
2019-05-22T17:25:00.007Z,97241.41
2019-05-22T17:27:32.235Z,97232.11
2019-05-22T17:30:06.476Z,97231.47
2019-05-22T17:32:38.569Z,97230.16
2019-05-22T17:35:12.115Z,97239.58
2019-05-22T17:37:46.140Z,97240.13
2019-05-22T17:40:20.483Z,97230.74
2019-05-22T17:42:54.356Z,97240.08
2019-05-22T17:45:28.414Z,97234.36
2019-05-22T17:48:03.294Z,97235.48
2019-05-22T17:50:35.330Z,97232.77
2019-05-22T17:53:07.664Z,97233.62
2019-05-22T17:55:40.417Z,97236.10
2019-05-22T17:58:13.027Z,97242.37
2019-05-22T18:00:47.473Z,97245.36
2019-05-22T18:03:19.472Z,97252.75
2019-05-22T18:05:51.971Z,97247.00
2019-05-22T18:08:24.093Z,97248.77
2019-05-22T18:10:56.373Z,97251.73
2019-05-22T18:13:28.761Z,97259.05
2019-05-22T18:16:04.479Z,97255.78
2019-05-22T18:18:34.915Z,97252.52
2019-05-22T18:21:10.386Z,97246.56
2019-05-22T18:23:40.426Z,97258.50
2019-05-22T18:26:12.229Z,97260.14
2019-05-22T18:28:46.681Z,97255.51
2019-05-22T18:31:19.477Z,97251.16
2019-05-22T18:33:52.050Z,97260.65
2019-05-22T18:36:23.880Z,97260.41
2019-05-22T18:38:56.181Z,97263.74
2019-05-22T18:41:29.011Z,97263.74
2019-05-22T18:44:01.794Z,97276.72
2019-05-22T18:46:33.762Z,97258.20
2019-05-22T18:49:05.833Z,97262.96
2019-05-22T18:51:38.100Z,97275.42
2019-05-22T18:54:09.834Z,97280.93
2019-05-22T18:56:43.063Z,97271.47
2019-05-22T18:59:14.844Z,97276.70
2019-05-22T19:01:46.620Z,97283.27
2019-05-22T19:04:18.302Z,97283.06
2019-05-22T19:06:51.402Z,97289.10
2019-05-22T19:09:23.820Z,97278.80
2019-05-22T19:11:55.765Z,97273.11
2019-05-22T19:14:28.075Z,97282.66
2019-05-22T19:16:59.800Z,97302.28
2019-05-22T19:19:31.748Z,97299.28
2019-05-22T19:22:03.675Z,97289.81
2019-05-22T19:24:35.463Z,97285.46
2019-05-22T19:27:07.134Z,97292.86
2019-05-22T19:29:38.963Z,97289.89
2019-05-22T19:32:10.496Z,97271.70
2019-05-22T19:34:42.633Z,97285.57
2019-05-22T19:37:14.503Z,97300.55
2019-05-22T19:39:46.530Z,97297.86
2019-05-22T19:42:18.907Z,97321.30
2019-05-22T19:44:50.706Z,97299.55
2019-05-22T19:47:23.114Z,97301.50
2019-05-22T19:49:57.278Z,97302.06
2019-05-22T19:52:41.075Z,97309.67
2019-05-22T19:55:06.934Z,97308.33
2019-05-22T19:57:37.744Z,97293.66
2019-05-22T20:00:12.205Z,97317.31
2019-05-22T20:02:44.551Z,97295.83
2019-05-22T20:05:17.238Z,97289.30
2019-05-22T20:07:49.268Z,97295.25
2019-05-22T20:10:21.831Z,97300.12
2019-05-22T20:12:53.626Z,97309.42
2019-05-22T20:15:26.083Z,97327.37
2019-05-22T20:17:58.834Z,97317.31
2019-05-22T20:20:30.982Z,97298.59
2019-05-22T20:23:03.190Z,97298.59
2019-05-22T20:25:35.841Z,97316.25
2019-05-22T20:28:09.018Z,97309.69
2019-05-22T20:30:41.131Z,97309.72
2019-05-22T20:33:13.715Z,97304.55
2019-05-22T20:35:45.663Z,97324.90
2019-05-22T20:38:18.000Z,97318.00
2019-05-22T20:40:49.908Z,97315.05
2019-05-22T20:43:23.741Z,97320.77
2019-05-22T20:45:58.167Z,97315.92
2019-05-22T20:48:30.920Z,97331.96
2019-05-22T20:51:03.727Z,97323.27
2019-05-22T20:53:52.830Z,97314.31
2019-05-22T20:56:12.882Z,97312.95
2019-05-22T20:58:48.171Z,97326.84
2019-05-22T21:01:21.832Z,97333.62
2019-05-22T21:03:53.877Z,97314.59
2019-05-22T21:06:27.540Z,97320.02
2019-05-22T21:09:00.358Z,97314.29
2019-05-22T21:11:34.461Z,97320.56
2019-05-22T21:14:07.323Z,97316.23
2019-05-22T21:16:41.436Z,97324.97
2019-05-22T21:19:13.678Z,97323.05
2019-05-22T21:21:46.643Z,97316.25
2019-05-22T21:24:18.461Z,97330.91
2019-05-22T21:26:50.985Z,97330.63
2019-05-22T21:29:24.331Z,97337.66
2019-05-22T21:31:57.463Z,97348.51
2019-05-22T21:34:30.585Z,97355.27
2019-05-22T21:37:02.763Z,97348.72
2019-05-22T21:39:35.250Z,97360.66
2019-05-22T21:42:07.692Z,97359.58
2019-05-22T21:44:42.311Z,97356.86
2019-05-22T21:47:14.758Z,97350.84
2019-05-22T21:49:47.133Z,97360.12
2019-05-22T21:52:19.590Z,97345.16
2019-05-22T21:54:52.609Z,97358.78
2019-05-22T21:57:25.577Z,97349.29
2019-05-22T21:59:59.739Z,97355.81
2019-05-22T22:02:38.500Z,97353.84
2019-05-22T22:05:11.749Z,97370.14
2019-05-22T22:07:43.871Z,97361.73
2019-05-22T22:10:16.156Z,97366.59
2019-05-22T22:12:49.312Z,97371.25
2019-05-22T22:15:22.599Z,97369.57
2019-05-22T22:17:55.244Z,97374.78
2019-05-22T22:20:27.068Z,97377.75
2019-05-22T22:22:59.940Z,97376.12
2019-05-22T22:25:32.176Z,97373.95
2019-05-22T22:28:04.517Z,97390.04
2019-05-22T22:30:43.999Z,97385.35
2019-05-22T22:33:16.715Z,97384.48
2019-05-22T22:35:50.204Z,97395.08
2019-05-22T22:38:25.024Z,97385.25
2019-05-22T22:40:57.403Z,97384.45
2019-05-22T22:43:32.568Z,97388.27
2019-05-22T22:46:23.849Z,97396.98
2019-05-22T22:48:58.227Z,97388.80
2019-05-22T22:51:30.431Z,97389.61
2019-05-22T22:54:04.919Z,97389.36
2019-05-22T22:56:37.712Z,97391.30
2019-05-22T22:59:10.436Z,97400.52
2019-05-22T23:01:46.081Z,97398.86
2019-05-22T23:04:19.836Z,97404.85
2019-05-22T23:06:51.937Z,97396.94
2019-05-22T23:09:25.644Z,97401.29
2019-05-22T23:11:58.225Z,97405.66
2019-05-22T23:14:31.173Z,97405.11
2019-05-22T23:17:05.610Z,97410.30
2019-05-22T23:19:38.750Z,97414.61
2019-05-22T23:22:18.166Z,97421.44
2019-05-22T23:24:52.015Z,97415.72
2019-05-22T23:27:24.031Z,97416.80
2019-05-22T23:29:56.091Z,97423.35
2019-05-22T23:32:28.412Z,97424.70
2019-05-22T23:35:02.080Z,97426.63
2019-05-22T23:37:35.466Z,97421.42
2019-05-22T23:40:11.029Z,97432.89
2019-05-22T23:42:44.290Z,97430.98
2019-05-22T23:45:22.162Z,97431.20
2019-05-22T23:48:24.364Z,97432.58
2019-05-22T23:50:56.406Z,97430.98
2019-05-22T23:53:29.968Z,97442.10
2019-05-22T23:56:04.899Z,97442.93
2019-05-22T23:58:51.636Z,97449.21
